Time;durP1;ratioP1;P1;durP2;ratioP2;P2;SDS_P1;SDS_P2;PMS_P1;PMS_P2;Temp;Humidity;BMP_temperature;BMP_pressure;BME280_temperature;BME280_humidity;BME280_pressure;Samples;Min_cycle;Max_cycle;Signal;HPM_P1;HPM_P2
2023/02/11 00:01:40;;;;;;;29.73;10.82;;;;;;;-5.85;80.11;100239.41;4789814;30;20055;-89
2023/02/11 00:04:06;;;;;;;40.95;12.15;;;;;;;-5.91;79.87;100231.59;4774838;30;20071;-90
2023/02/11 00:06:34;;;;;;;28.90;10.02;;;;;;;-5.95;79.67;100238.56;4791866;30;20118;-89
2023/02/11 00:09:00;;;;;;;28.33;10.75;;;;;;;-6.07;79.63;100227.28;4791387;30;20047;-89
2023/02/11 00:11:30;;;;;;;25.17;10.45;;;;;;;-6.04;79.75;100227.28;4788865;30;20051;-87
2023/02/11 00:14:02;;;;;;;27.17;9.68;;;;;;;-5.98;79.50;100214.25;4774012;30;20556;-89
2023/02/11 00:16:29;;;;;;;25.90;10.00;;;;;;;-5.84;79.90;100229.88;4789352;30;20519;-88
2023/02/11 00:18:55;;;;;;;24.90;10.02;;;;;;;-5.85;79.75;100234.22;4774526;30;20603;-89
2023/02/11 00:21:26;;;;;;;28.20;10.68;;;;;;;-5.94;79.42;100221.19;4789172;30;20458;-90
2023/02/11 00:23:53;;;;;;;20.65;9.68;;;;;;;-5.91;79.62;100224.66;4791097;30;20051;-89
2023/02/11 00:26:22;;;;;;;21.98;9.23;;;;;;;-5.88;79.25;100224.66;4775720;30;20118;-91
2023/02/11 00:28:49;;;;;;;19.95;8.75;;;;;;;-5.86;79.16;100222.06;4777093;30;20423;-89
2023/02/11 00:31:16;;;;;;;22.30;9.05;;;;;;;-5.90;79.25;100228.16;4799350;29;20518;-89
2023/02/11 00:33:43;;;;;;;22.35;8.80;;;;;;;-5.90;79.13;100225.53;4786759;30;20043;-92
2023/02/11 00:36:14;;;;;;;24.15;9.68;;;;;;;-5.97;78.68;100214.28;4801453;29;20039;-91
2023/02/11 00:38:44;;;;;;;20.38;9.52;;;;;;;-5.98;78.70;100227.28;4802376;29;20105;-90
2023/02/11 00:41:12;;;;;;;16.75;7.88;;;;;;;-6.02;78.73;100218.59;4800967;30;20055;-88
2023/02/11 00:43:38;;;;;;;22.73;8.57;;;;;;;-6.00;78.75;100223.81;4794794;29;20079;-88
2023/02/11 00:46:05;;;;;;;19.02;7.75;;;;;;;-6.06;78.58;100214.25;4774592;30;20060;-88
2023/02/11 00:48:31;;;;;;;19.73;7.90;;;;;;;-6.16;78.37;100202.97;4803862;29;20044;-89
2023/02/11 00:50:59;;;;;;;17.55;8.07;;;;;;;-6.14;78.54;100206.44;4789662;29;20062;-89
2023/02/11 00:53:25;;;;;;;20.30;9.35;;;;;;;-6.15;78.40;100199.50;4788321;30;20466;-88
2023/02/11 00:55:51;;;;;;;15.68;7.22;;;;;;;-6.09;78.37;100188.25;4787883;30;20408;-89
2023/02/11 00:58:17;;;;;;;17.40;8.38;;;;;;;-6.08;77.97;100202.13;4774439;30;20047;-88
2023/02/11 01:00:43;;;;;;;25.75;9.93;;;;;;;-6.16;78.10;100202.97;4789906;30;20051;-88
2023/02/11 01:03:09;;;;;;;20.48;9.85;;;;;;;-6.09;78.17;100197.75;4773417;30;20509;-88
2023/02/11 01:05:35;;;;;;;22.73;9.52;;;;;;;-6.17;78.03;100198.66;4773088;30;20188;-89
2023/02/11 01:08:01;;;;;;;19.88;8.48;;;;;;;-6.27;78.07;100189.09;4788394;30;20055;-88
2023/02/11 01:10:28;;;;;;;15.65;8.98;;;;;;;-6.23;77.44;100189.97;4787812;30;20055;-88
2023/02/11 01:12:54;;;;;;;14.48;7.43;;;;;;;-6.42;77.82;100178.66;4789007;29;20059;-88
2023/02/11 01:15:20;;;;;;;17.17;8.82;;;;;;;-6.35;77.77;100183.00;4787832;30;20135;-88
2023/02/11 01:17:46;;;;;;;18.60;8.40;;;;;;;-6.33;77.09;100189.06;4787990;30;20063;-90
2023/02/11 01:20:20;;;;;;;15.90;7.60;;;;;;;-6.41;76.94;100186.44;4787864;30;20051;-90
2023/02/11 01:22:46;;;;;;;13.75;7.85;;;;;;;-6.43;77.28;100177.78;4788709;29;20043;-88
2023/02/11 01:25:14;;;;;;;12.68;6.65;;;;;;;-6.38;77.43;100185.59;4787892;29;20052;-88
2023/02/11 01:27:40;;;;;;;15.57;7.97;;;;;;;-6.37;77.10;100177.78;4772573;30;20054;-88
2023/02/11 01:30:08;;;;;;;12.80;6.72;;;;;;;-6.44;76.98;100181.25;4772703;30;20108;-88
2023/02/11 01:32:34;;;;;;;6.68;4.63;;;;;;;-6.56;76.80;100185.56;4787079;29;20058;-87
2023/02/11 01:35:01;;;;;;;14.75;7.28;;;;;;;-6.55;76.97;100188.16;4772370;30;20053;-87
2023/02/11 01:37:28;;;;;;;13.63;7.85;;;;;;;-6.55;76.71;100182.09;4787171;30;20063;-89
2023/02/11 01:39:54;;;;;;;12.38;6.07;;;;;;;-6.61;76.94;100189.00;4772242;30;20043;-88
2023/02/11 01:42:22;;;;;;;11.07;5.53;;;;;;;-6.72;76.78;100179.44;4787268;30;20050;-88
2023/02/11 01:44:53;;;;;;;12.90;5.85;;;;;;;-6.85;76.85;100179.38;4787402;29;20059;-86
2023/02/11 01:47:20;;;;;;;8.68;5.18;;;;;;;-6.82;76.67;100178.53;4772254;30;20078;-86
2023/02/11 01:49:51;;;;;;;9.20;5.28;;;;;;;-6.89;76.97;100187.16;4772367;30;20124;-87
2023/02/11 01:52:23;;;;;;;13.02;6.65;;;;;;;-6.96;77.49;100185.41;4772316;30;20069;-87
2023/02/11 01:57:46;;;;;;;9.70;6.18;;;;;;;-6.83;77.35;100175.94;4792379;30;20047;-85
2023/02/11 02:00:14;;;;;;;14.18;6.53;;;;;;;-6.89;77.34;100163.78;4774568;30;20051;-87
2023/02/11 02:02:59;;;;;;;10.15;6.05;;;;;;;-6.91;77.57;100166.38;4772774;30;20512;-86
2023/02/11 02:05:49;;;;;;;7.97;4.88;;;;;;;-6.91;77.41;100160.31;4771987;30;20054;-84
2023/02/11 02:08:43;;;;;;;16.23;6.28;;;;;;;-6.91;77.45;100162.91;4772034;30;20062;-86
2023/02/11 02:11:09;;;;;;;10.43;6.32;;;;;;;-6.94;77.68;100168.09;4786822;30;20415;-87
2023/02/11 02:13:36;;;;;;;11.68;5.88;;;;;;;-6.89;77.51;100158.56;4786842;30;20162;-89
2023/02/11 02:16:29;;;;;;;8.80;6.00;;;;;;;-6.87;77.14;100143.88;4787893;30;20120;-87
2023/02/11 02:19:23;;;;;;;9.50;5.60;;;;;;;-6.76;77.14;100156.91;4788849;29;20043;-89
2023/02/11 02:22:30;;;;;;;9.13;5.03;;;;;;;-6.88;76.44;100152.53;4788342;29;20050;-87
2023/02/11 02:25:30;;;;;;;6.93;3.78;;;;;;;-6.98;76.61;100150.75;4774531;30;20058;-89
2023/02/11 02:28:51;;;;;;;5.72;4.05;;;;;;;-6.97;76.65;100149.88;4803282;29;20051;-87
2023/02/11 02:31:42;;;;;;;6.45;3.95;;;;;;;-7.04;76.65;100150.72;4716088;30;20052;-88
2023/02/11 02:34:18;;;;;;;5.53;3.72;;;;;;;-7.12;76.77;100148.97;4736096;30;20052;-88
2023/02/11 02:37:07;;;;;;;5.88;3.58;;;;;;;-7.07;76.50;100135.13;4763791;30;20063;-88
2023/02/11 02:39:36;;;;;;;3.35;2.90;;;;;;;-7.17;76.50;100137.69;4801820;29;20054;-89
2023/02/11 02:42:04;;;;;;;7.40;4.68;;;;;;;-7.27;77.11;100127.25;4787140;30;20051;-89
2023/02/11 02:44:30;;;;;;;6.05;3.83;;;;;;;-7.30;77.27;100133.28;4771534;30;20055;-89
2023/02/11 02:46:56;;;;;;;6.25;3.80;;;;;;;-7.32;77.69;100139.34;4801636;29;20519;-90
2023/02/11 02:49:21;;;;;;;6.53;4.55;;;;;;;-7.41;77.60;100137.56;4787785;29;20076;-88
2023/02/11 02:51:56;;;;;;;5.63;3.38;;;;;;;-7.30;77.43;100140.22;4788251;30;20039;-90
2023/02/11 02:54:44;;;;;;;7.18;3.90;;;;;;;-7.44;77.53;100147.97;4802986;29;20051;-88
2023/02/11 02:57:31;;;;;;;6.75;3.05;;;;;;;-7.42;77.07;100143.63;4787375;30;20043;-88
2023/02/11 03:00:33;;;;;;;7.97;4.75;;;;;;;-7.52;76.50;100137.53;4797698;29;20082;-87
2023/02/11 03:03:02;;;;;;;4.97;2.72;;;;;;;-7.61;76.32;100148.69;4793632;30;20047;-87
2023/02/11 03:05:42;;;;;;;5.65;3.88;;;;;;;-7.62;76.06;100136.59;4789431;30;20074;-86
2023/02/11 03:08:21;;;;;;;4.13;3.28;;;;;;;-7.62;75.99;100139.19;4804997;29;20051;-85
2023/02/11 03:10:52;;;;;;;6.10;3.65;;;;;;;-7.77;76.08;100128.72;4806285;29;20047;-87
2023/02/11 03:13:22;;;;;;;7.15;3.72;;;;;;;-7.71;76.08;100140.84;4805095;29;20085;-87
2023/02/11 03:15:51;;;;;;;6.97;4.10;;;;;;;-7.68;76.14;100138.28;4790991;30;20056;-86
2023/02/11 03:18:21;;;;;;;6.82;4.65;;;;;;;-7.71;75.63;100141.75;4808878;29;20405;-85
2023/02/11 03:20:50;;;;;;;6.07;4.07;;;;;;;-7.66;75.56;100129.66;4790481;30;20583;-85
2023/02/11 03:23:55;;;;;;;3.92;2.80;;;;;;;-7.69;75.28;100137.41;4793260;30;20051;-87
2023/02/11 03:26:28;;;;;;;5.03;3.85;;;;;;;-7.82;75.73;100138.22;4794014;30;20431;-86
2023/02/11 03:29:02;;;;;;;8.07;3.30;;;;;;;-7.84;76.27;100129.53;4807863;29;20083;-87
2023/02/11 03:31:31;;;;;;;7.43;4.07;;;;;;;-7.91;76.46;100128.59;4806029;29;20059;-86
2023/02/11 03:34:05;;;;;;;6.85;4.15;;;;;;;-7.92;76.59;100144.19;4790357;29;20526;-86
2023/02/11 03:36:44;;;;;;;6.55;4.07;;;;;;;-7.98;77.47;100136.34;4789634;30;20047;-85
2023/02/11 03:39:18;;;;;;;6.93;4.45;;;;;;;-7.90;77.18;100134.66;4791905;29;20539;-87
2023/02/11 03:41:47;;;;;;;10.32;4.78;;;;;;;-7.86;77.69;100149.41;4808294;29;20232;-89
2023/02/11 03:44:15;;;;;;;7.70;4.80;;;;;;;-7.76;77.49;100143.41;4810078;29;20059;-89
2023/02/11 03:46:46;;;;;;;8.50;4.70;;;;;;;-7.72;77.17;100141.72;4778948;29;20153;-85
2023/02/11 03:49:16;;;;;;;10.10;5.10;;;;;;;-7.57;77.21;100145.25;4779379;29;20055;-88
2023/02/11 03:51:43;;;;;;;8.73;4.85;;;;;;;-7.57;76.86;100134.88;4762916;29;20047;-82
2023/02/11 03:54:17;;;;;;;6.63;4.13;;;;;;;-7.51;76.56;100146.19;4779680;29;20059;-81
2023/02/11 03:56:50;;;;;;;5.80;3.17;;;;;;;-7.54;76.93;100159.13;4777419;29;20046;-84
2023/02/11 03:59:16;;;;;;;8.98;4.18;;;;;;;-7.45;76.68;100160.03;4763694;29;20122;-85
2023/02/11 04:01:45;;;;;;;9.15;5.18;;;;;;;-7.44;76.50;100151.41;4777439;29;20146;-82
2023/02/11 04:04:17;;;;;;;8.02;4.80;;;;;;;-7.44;76.24;100150.56;4809853;29;20088;-89
2023/02/11 04:07:09;;;;;;;9.00;4.47;;;;;;;-7.30;75.83;100148.00;4779728;29;20054;-86
2023/02/11 04:09:35;;;;;;;10.10;4.90;;;;;;;-7.30;75.98;100143.69;4804713;29;20082;-84
2023/02/11 04:12:01;;;;;;;11.85;5.93;;;;;;;-7.26;75.85;100144.56;4810350;29;20058;-88
2023/02/11 04:14:27;;;;;;;6.97;4.55;;;;;;;-7.29;75.97;100129.84;4866971;24;20106;-84
2023/02/11 04:16:53;;;;;;;9.30;5.15;;;;;;;-7.21;76.10;100138.53;4791544;29;20432;-88
2023/02/11 04:19:19;;;;;;;8.48;5.18;;;;;;;-7.19;76.06;100136.81;4777284;30;20051;-83
2023/02/11 04:21:46;;;;;;;10.23;5.32;;;;;;;-7.15;75.92;100138.53;4797334;30;20059;-87
2023/02/11 04:24:12;;;;;;;13.45;7.20;;;;;;;-7.13;76.01;100134.25;4782641;30;20055;-84
2023/02/11 04:26:38;;;;;;;13.13;6.68;;;;;;;-6.90;75.83;100138.66;4781133;30;20047;-85
2023/02/11 04:29:04;;;;;;;13.95;6.57;;;;;;;-6.82;74.79;100128.28;4779815;30;20054;-90
2023/02/11 04:31:30;;;;;;;12.13;6.03;;;;;;;-6.77;74.45;100140.44;4797482;30;20059;-91
2023/02/11 04:33:56;;;;;;;9.38;5.43;;;;;;;-6.73;74.16;100136.97;4765903;30;20070;-92
2023/02/11 04:36:22;;;;;;;11.23;6.10;;;;;;;-6.82;73.71;100129.13;4748653;30;20083;-91
2023/02/11 04:38:48;;;;;;;9.70;6.00;;;;;;;-6.69;73.83;100136.13;4794340;29;20047;-91
2023/02/11 04:41:13;;;;;;;8.57;5.00;;;;;;;-6.63;72.85;100146.53;4781411;30;20047;-94
2023/02/11 04:43:39;;;;;;;12.40;6.30;;;;;;;-6.64;72.92;100143.94;4789978;29;20055;-95
2023/02/11 04:46:05;;;;;;;8.55;5.22;;;;;;;-6.72;73.22;100133.50;4784812;30;20561;-86
2023/02/11 04:48:31;;;;;;;10.98;5.00;;;;;;;-6.67;72.49;100136.97;4796564;30;20028;-94
2023/02/11 04:50:57;;;;;;;9.85;5.57;;;;;;;-6.62;72.79;100144.78;4790419;30;20082;-86
2023/02/11 04:53:22;;;;;;;6.82;3.83;;;;;;;-6.62;71.91;100140.47;4778178;30;20409;-91
2023/02/11 04:55:49;;;;;;;7.93;4.93;;;;;;;-6.76;72.48;100147.38;4808039;29;20520;-83
2023/02/11 04:58:15;;;;;;;9.23;5.22;;;;;;;-6.67;72.95;100152.59;4795014;29;20047;-90
2023/02/11 05:00:42;;;;;;;10.93;5.50;;;;;;;-6.54;72.71;100157.81;4790876;29;20043;-87
2023/02/11 05:03:08;;;;;;;8.25;4.95;;;;;;;-6.40;72.43;100161.31;4775536;30;20047;-89
2023/02/11 05:05:33;;;;;;;8.82;4.78;;;;;;;-6.46;71.91;100143.09;5002355;24;20150;-93
2023/02/11 05:07:59;;;;;;;7.60;4.97;;;;;;;-6.43;71.43;100145.69;4793639;29;20054;-83
2023/02/11 05:10:25;;;;;;;6.63;4.38;;;;;;;-6.36;71.55;100144.84;4789768;30;20051;-89
2023/02/11 05:12:51;;;;;;;11.02;5.85;;;;;;;-6.24;71.49;100156.97;4770176;30;20059;-91
2023/02/11 05:15:17;;;;;;;9.13;4.65;;;;;;;-6.12;71.43;100155.28;4798033;30;20449;-90
2023/02/11 05:17:43;;;;;;;12.25;6.00;;;;;;;-5.42;77.41;100153.44;4776439;30;20050;-88
2023/02/11 05:20:09;;;;;;;9.88;5.53;;;;;;;-5.36;73.04;100163.84;4794556;30;20047;-90
2023/02/11 05:22:35;;;;;;;4.78;3.35;;;;;;;-5.27;74.30;100153.38;4790249;30;20051;-90
2023/02/11 05:25:01;;;;;;;7.57;4.32;;;;;;;-5.43;70.69;100162.97;4791425;30;20051;-91
2023/02/11 05:27:27;;;;;;;8.63;4.68;;;;;;;-5.60;70.15;100167.38;4795293;29;20051;-89
2023/02/11 05:29:52;;;;;;;9.00;5.05;;;;;;;-5.62;70.27;100169.97;4781711;30;20055;-93
2023/02/11 05:32:18;;;;;;;7.22;5.05;;;;;;;-5.62;69.45;100164.75;4791796;30;20031;-95
2023/02/11 05:34:45;;;;;;;7.60;5.32;;;;;;;-5.69;69.75;100168.22;4761324;30;20519;-92
2023/02/11 05:37:11;;;;;;;9.32;4.25;;;;;;;-5.44;69.30;100168.22;4758657;30;20055;-81
2023/02/11 05:39:37;;;;;;;9.40;5.20;;;;;;;-5.51;68.47;100158.66;4789548;30;20412;-88
2023/02/11 05:42:03;;;;;;;9.75;5.55;;;;;;;-5.45;68.96;100174.31;4773237;30;20052;-87
2023/02/11 05:44:29;;;;;;;9.05;5.50;;;;;;;-5.31;68.32;100175.09;4777238;30;20081;-90
2023/02/11 05:46:55;;;;;;;7.32;4.45;;;;;;;-5.37;67.64;100167.31;4776043;30;20063;-87
2023/02/11 05:49:21;;;;;;;8.70;5.28;;;;;;;-5.41;67.13;100160.41;4791496;30;20051;-86
2023/02/11 05:51:46;;;;;;;9.27;5.18;;;;;;;-5.31;67.21;100161.22;4786975;30;20050;-86
2023/02/11 05:54:12;;;;;;;11.40;4.68;;;;;;;-5.26;66.49;100168.16;4785944;30;20415;-85
2023/02/11 05:56:38;;;;;;;11.43;5.32;;;;;;;-5.28;66.63;100169.91;4758404;30;20047;-81
2023/02/11 05:59:05;;;;;;;17.35;5.03;;;;;;;-5.34;66.17;100175.16;4792096;30;20108;-88
2023/02/11 06:01:31;;;;;;;15.45;5.00;;;;;;;-4.90;69.79;100174.13;4789588;30;20055;-88
2023/02/11 06:03:57;;;;;;;10.55;5.10;;;;;;;-4.76;66.93;100166.25;4787957;30;20051;-85
2023/02/11 06:06:24;;;;;;;10.52;5.05;;;;;;;-4.74;65.33;100173.19;4790536;30;20059;-91
2023/02/11 06:08:49;;;;;;;9.25;5.55;;;;;;;-4.71;64.52;100170.53;4778498;30;20053;-90
2023/02/11 06:11:16;;;;;;;12.05;5.72;;;;;;;-4.76;63.40;100174.94;4776413;30;20503;-90
2023/02/11 06:13:43;;;;;;;10.60;6.10;;;;;;;-5.04;63.27;100157.66;4789756;30;20500;-88
2023/02/11 06:16:08;;;;;;;8.32;4.93;;;;;;;-5.10;62.71;100160.31;4791049;30;20051;-89
2023/02/11 06:18:34;;;;;;;8.40;5.00;;;;;;;-5.35;62.71;100156.88;4797045;30;20123;-83
2023/02/11 06:21:00;;;;;;;12.52;5.75;;;;;;;-5.65;62.18;100149.13;4795684;30;20058;-90
2023/02/11 06:23:26;;;;;;;19.90;6.20;;;;;;;-5.72;62.19;100178.66;4792640;30;20043;-88
2023/02/11 06:25:52;;;;;;;11.60;6.63;;;;;;;-5.61;61.90;100163.88;4794028;30;20051;-90
2023/02/11 06:28:18;;;;;;;10.05;5.60;;;;;;;-5.54;61.41;100171.69;4802916;30;20165;-91
2023/02/11 06:30:44;;;;;;;11.05;5.50;;;;;;;-5.68;60.61;100156.97;4792622;30;20113;-87
2023/02/11 06:33:10;;;;;;;14.40;6.30;;;;;;;-5.88;60.76;100166.50;4797999;29;20051;-85
2023/02/11 06:35:39;;;;;;;10.70;6.50;;;;;;;-5.82;60.94;100176.94;4794577;29;20523;-84
2023/02/11 06:38:05;;;;;;;10.82;5.43;;;;;;;-5.95;60.79;100178.69;4788152;30;20071;-85
2023/02/11 06:40:30;;;;;;;9.80;5.68;;;;;;;-5.96;61.13;100183.91;4791275;30;20047;-91
2023/02/11 06:42:56;;;;;;;10.88;5.85;;;;;;;-5.87;61.19;100178.66;4792189;29;20054;-90
2023/02/11 06:45:22;;;;;;;10.98;6.53;;;;;;;-5.66;61.11;100183.88;4763171;30;20078;-91
2023/02/11 06:47:51;;;;;;;14.98;7.78;;;;;;;-5.46;60.15;100182.97;4795361;30;20059;-93
2023/02/11 06:50:17;;;;;;;12.25;6.63;;;;;;;-5.26;59.98;100177.72;4776252;30;20082;-88
2023/02/11 06:52:43;;;;;;;14.52;7.18;;;;;;;-5.31;59.51;100185.53;4789925;30;20051;-87
2023/02/11 06:55:08;;;;;;;12.73;7.25;;;;;;;-5.53;59.32;100184.69;4776205;30;20075;-85
2023/02/11 06:57:35;;;;;;;11.88;7.03;;;;;;;-5.48;59.69;100184.72;4782130;30;20079;-89
2023/02/11 07:00:01;;;;;;;12.52;7.43;;;;;;;-5.46;59.59;100196.00;4766971;30;20059;-91
2023/02/11 07:02:29;;;;;;;14.10;7.45;;;;;;;-5.39;59.53;100192.50;4796231;29;20061;-91
2023/02/11 07:04:55;;;;;;;11.45;6.40;;;;;;;-5.52;59.23;100185.59;4795105;29;20055;-90
2023/02/11 07:07:20;;;;;;;13.18;6.53;;;;;;;-5.69;59.59;100186.47;4813603;29;20102;-86
2023/02/11 07:09:48;;;;;;;13.57;6.80;;;;;;;-5.13;67.41;100185.50;4766394;29;20215;-86
2023/02/11 07:12:14;;;;;;;11.93;6.63;;;;;;;-5.13;61.14;100176.81;4780452;29;20504;-88
2023/02/11 07:14:39;;;;;;;14.13;7.18;;;;;;;-5.21;59.54;100176.84;4795653;29;20074;-86
2023/02/11 07:17:05;;;;;;;12.27;6.93;;;;;;;-5.47;59.02;100165.59;4792433;29;20146;-87
2023/02/11 07:19:31;;;;;;;11.90;6.10;;;;;;;-5.37;58.64;100176.00;4756971;30;20146;-91
2023/02/11 07:21:57;;;;;;;9.73;5.75;;;;;;;-5.27;58.09;100166.41;4757117;30;20569;-89
2023/02/11 07:24:23;;;;;;;14.85;6.80;;;;;;;-5.16;58.11;100163.78;4773313;30;20083;-87
2023/02/11 07:26:49;;;;;;;14.50;6.15;;;;;;;-5.21;58.06;100155.97;4775394;30;20428;-87
2023/02/11 07:29:15;;;;;;;12.77;6.60;;;;;;;-5.26;58.16;100157.75;4758132;30;20153;-81
2023/02/11 07:31:41;;;;;;;9.57;6.25;;;;;;;-5.18;57.39;100155.97;4758318;30;20051;-80
2023/02/11 07:34:07;;;;;;;12.35;7.07;;;;;;;-5.17;57.86;100149.88;4754885;30;20128;-82
2023/02/11 07:36:33;;;;;;;19.63;6.65;;;;;;;-5.07;57.93;100155.09;4755009;30;20482;-85
2023/02/11 07:38:59;;;;;;;13.73;7.47;;;;;;;-5.09;57.71;100151.59;4769090;30;20059;-82
2023/02/11 07:41:25;;;;;;;13.10;7.22;;;;;;;-4.95;57.72;100149.81;4740613;30;20655;-83
2023/02/11 07:43:52;;;;;;;10.93;7.00;;;;;;;-4.64;57.92;100147.91;4739743;30;20063;-82
2023/02/11 07:46:21;;;;;;;12.60;6.78;;;;;;;-4.60;56.98;100148.75;4754713;30;20060;-91
2023/02/11 07:48:47;;;;;;;11.10;6.10;;;;;;;-4.79;56.82;100138.41;4742951;30;20146;-85
2023/02/11 07:51:19;;;;;;;11.55;6.45;;;;;;;-4.89;56.64;100124.59;4788477;30;20491;-90
2023/02/11 07:53:46;;;;;;;11.60;6.65;;;;;;;-4.48;57.38;100127.81;4757194;30;20580;-84
2023/02/11 07:56:14;;;;;;;11.55;6.63;;;;;;;-4.32;56.26;100139.91;4773524;30;20133;-82
2023/02/11 07:58:41;;;;;;;14.35;7.38;;;;;;;-4.37;55.88;100140.78;4744762;30;20051;-83
2023/02/11 08:01:10;;;;;;;13.05;6.15;;;;;;;-4.27;56.29;100132.03;4744427;30;20059;-80
2023/02/11 08:03:37;;;;;;;;;;;;;;;-4.37;55.47;100115.56;4759014;30;20507;-83
2023/02/11 08:06:05;;;;;;;11.38;7.43;;;;;;;-4.55;55.87;100132.22;4758536;30;20378;-83
2023/02/11 08:08:31;;;;;;;10.00;5.00;;;;;;;-4.48;56.41;100133.03;4757803;30;20142;-84
2023/02/11 08:10:57;;;;;;;12.63;6.07;;;;;;;-4.53;55.97;100147.84;4801722;29;20043;-83
2023/02/11 08:13:25;;;;;;;10.50;5.28;;;;;;;-4.73;55.56;100122.75;4785026;29;20042;-83
2023/02/11 08:15:51;;;;;;;16.10;7.20;;;;;;;-4.71;56.45;100126.19;4785447;29;20046;-84
2023/02/11 08:18:20;;;;;;;9.90;5.70;;;;;;;-4.81;56.35;100134.97;4792031;29;20047;-85
2023/02/11 08:20:46;;;;;;;10.00;5.68;;;;;;;-4.56;56.37;100119.16;4755276;29;20054;-84
2023/02/11 08:23:12;;;;;;;11.57;6.40;;;;;;;-4.51;56.51;100122.63;4760568;29;20043;-83
2023/02/11 08:25:37;;;;;;;8.63;5.00;;;;;;;-4.24;55.86;100113.75;4806739;29;20059;-85
2023/02/11 08:28:03;;;;;;;9.13;5.40;;;;;;;-4.27;55.30;100113.75;4775024;29;20054;-83
2023/02/11 08:30:29;;;;;;;12.32;6.57;;;;;;;-4.48;56.21;100105.19;4773084;29;20058;-84
2023/02/11 08:32:55;;;;;;;14.00;7.47;;;;;;;-4.08;56.21;100124.91;4785466;29;20153;-86
2023/02/11 08:35:21;;;;;;;8.95;5.68;;;;;;;-3.62;54.85;100111.44;4788932;29;20091;-84
2023/02/11 08:37:47;;;;;;;10.05;6.90;;;;;;;-3.40;54.68;100109.47;4774531;29;20043;-84
2023/02/11 08:40:12;;;;;;;9.18;6.05;;;;;;;-3.29;53.22;100111.06;4761139;29;20448;-84
2023/02/11 08:42:38;;;;;;;10.27;6.57;;;;;;;-3.52;53.35;100102.63;4806780;29;20039;-84
2023/02/11 08:45:04;;;;;;;10.65;6.35;;;;;;;-3.32;53.93;100110.25;4790908;29;20137;-83
2023/02/11 08:47:30;;;;;;;12.38;6.82;;;;;;;-3.31;53.60;100099.78;4776363;29;20073;-87
2023/02/11 08:49:56;;;;;;;8.98;5.60;;;;;;;-3.39;52.96;100103.34;4776793;29;20049;-85
2023/02/11 08:52:22;;;;;;;12.90;6.72;;;;;;;-3.55;53.44;100097.44;4774978;29;20042;-84
2023/02/11 08:54:48;;;;;;;11.93;5.82;;;;;;;-3.52;53.74;100086.94;4775510;29;20043;-86
2023/02/11 08:57:14;;;;;;;19.55;7.25;;;;;;;-3.72;54.49;100095.88;4775424;29;20078;-86
2023/02/11 08:59:39;;;;;;;12.98;6.70;;;;;;;-3.61;54.39;100093.16;4790346;29;20062;-86
2023/02/11 09:02:06;;;;;;;13.65;7.55;;;;;;;-3.35;54.46;100100.66;4760800;29;20431;-84
2023/02/11 09:04:32;;;;;;;9.70;5.80;;;;;;;-3.28;53.78;100102.34;4776408;29;20404;-83
2023/02/11 09:06:58;;;;;;;11.18;5.95;;;;;;;-3.13;53.21;100090.81;4774548;29;20058;-81
2023/02/11 09:09:23;;;;;;;10.48;5.95;;;;;;;-3.12;53.28;100091.69;4790483;29;20179;-83
2023/02/11 09:11:49;;;;;;;11.45;6.28;;;;;;;-2.91;52.65;100096.66;4775175;29;20077;-89
2023/02/11 09:14:20;;;;;;;10.60;6.68;;;;;;;-2.98;52.67;100092.38;4760491;29;20054;-86
2023/02/11 09:16:46;;;;;;;11.63;6.63;;;;;;;-3.09;52.77;100086.44;4790311;29;20054;-85
2023/02/11 09:19:12;;;;;;;10.85;6.55;;;;;;;-2.92;53.01;100094.94;4790065;29;20055;-84
2023/02/11 09:21:38;;;;;;;12.30;6.43;;;;;;;-2.84;53.59;100069.53;4789495;29;20046;-86
2023/02/11 09:24:05;;;;;;;10.68;6.20;;;;;;;-2.88;52.41;100070.47;4788468;29;20496;-92
2023/02/11 09:26:33;;;;;;;14.45;6.90;;;;;;;-2.84;52.89;100072.16;4804916;29;20054;-88
2023/02/11 09:29:00;;;;;;;11.70;6.40;;;;;;;-2.85;52.90;100086.13;4805707;29;20051;-85
2023/02/11 09:31:28;;;;;;;12.07;6.78;;;;;;;-2.48;55.68;100086.47;4806063;29;20578;-85
2023/02/11 09:34:00;;;;;;;14.20;7.18;;;;;;;-2.33;53.74;100080.13;4806047;29;20051;-84
2023/02/11 09:36:29;;;;;;;15.25;8.02;;;;;;;-2.07;53.55;100087.56;4805071;29;20051;-88
2023/02/11 09:38:57;;;;;;;14.10;7.43;;;;;;;-2.24;52.30;100079.97;4793947;29;20098;-90
2023/02/11 09:41:23;;;;;;;19.15;7.68;;;;;;;-2.50;52.61;100074.28;4776512;29;20107;-87
2023/02/11 09:43:53;;;;;;;11.70;6.70;;;;;;;-2.86;53.42;100076.53;4806209;29;20051;-82
2023/02/11 09:46:19;;;;;;;;;;;;;;;-2.77;53.63;100084.25;4775184;29;20122;-81
2023/02/11 09:48:47;;;;;;;12.23;6.60;;;;;;;-3.09;54.17;100073.34;4805473;29;19932;-83
2023/02/11 09:51:34;;;;;;;9.48;6.47;;;;;;;-3.15;54.28;100073.44;4774359;29;20047;-83
2023/02/11 09:54:06;;;;;;;12.15;6.60;;;;;;;-2.98;54.13;100079.31;4805175;29;20047;-86
2023/02/11 09:56:32;;;;;;;13.80;6.93;;;;;;;-3.34;54.77;100076.28;4790133;29;20082;-86
2023/02/11 09:58:58;;;;;;;16.27;7.25;;;;;;;-3.29;55.46;100077.09;4774192;29;20046;-85
2023/02/11 10:01:30;;;;;;;12.80;7.18;;;;;;;-3.19;54.95;100086.56;4775449;29;20093;-87
2023/02/11 10:04:31;;;;;;;15.63;7.53;;;;;;;-3.26;55.09;100069.22;4762450;29;20047;-85
2023/02/11 10:07:13;;;;;;;10.52;5.97;;;;;;;-3.44;54.90;100078.13;4745028;30;20063;-84
2023/02/11 10:10:19;;;;;;;16.90;7.68;;;;;;;-3.49;55.47;100071.25;4800780;29;20156;-85
2023/02/11 10:12:51;;;;;;;10.10;6.72;;;;;;;-3.59;55.78;100070.47;4733381;30;20616;-86
2023/02/11 10:15:44;;;;;;;16.20;6.80;;;;;;;-3.81;56.19;100075.03;4720756;30;20090;-89
2023/02/11 10:18:44;;;;;;;11.27;6.88;;;;;;;-3.99;56.85;100088.28;4769196;30;20069;-86
2023/02/11 10:21:40;;;;;;;19.02;7.65;;;;;;;-3.98;57.67;100082.19;4762323;30;20603;-87
2023/02/11 10:24:11;;;;;;;13.40;7.10;;;;;;;-3.91;57.47;100087.34;4727177;30;20052;-89
2023/02/11 10:26:39;;;;;;;14.52;7.05;;;;;;;-3.94;57.18;100068.22;4761577;30;20420;-89
2023/02/11 10:29:17;;;;;;;12.55;6.38;;;;;;;-3.92;57.95;100072.53;4777835;30;20062;-88
2023/02/11 10:31:45;;;;;;;29.08;7.43;;;;;;;-4.15;58.10;100059.69;4776581;30;20062;-91
2023/02/11 10:34:13;;;;;;;12.20;6.57;;;;;;;-4.28;58.63;100068.53;4758227;30;20058;-88
2023/02/11 10:36:41;;;;;;;10.70;5.82;;;;;;;-4.43;58.63;100068.66;4757347;30;20157;-87
2023/02/11 10:39:19;;;;;;;11.77;6.22;;;;;;;-4.51;59.86;100060.88;4756333;30;20538;-87
2023/02/11 10:42:23;;;;;;;14.65;7.57;;;;;;;-4.25;59.81;100057.16;4771652;30;20162;-86
2023/02/11 10:45:22;;;;;;;13.45;7.95;;;;;;;-4.20;59.62;100066.72;4721537;30;20549;-87
2023/02/11 10:47:48;;;;;;;21.98;7.60;;;;;;;-4.34;59.78;100067.69;4721641;30;20087;-82
2023/02/11 10:50:26;;;;;;;16.17;7.68;;;;;;;-4.24;59.62;100072.84;4746936;30;20075;-88
2023/02/11 10:53:10;;;;;;;15.35;7.13;;;;;;;-4.07;59.66;100063.97;4776401;30;20636;-85
2023/02/11 10:55:36;;;;;;;12.15;6.63;;;;;;;-4.05;59.60;100070.06;4742421;30;20119;-84
2023/02/11 10:58:03;;;;;;;11.02;5.68;;;;;;;-4.39;60.15;100075.56;4775964;30;20059;-85
2023/02/11 11:00:37;;;;;;;12.15;6.78;;;;;;;-4.44;60.49;100072.09;4760379;30;20043;-86
2023/02/11 11:03:19;;;;;;;12.88;6.20;;;;;;;-4.44;60.43;100072.09;4791025;30;20066;-86
2023/02/11 11:05:50;;;;;;;11.07;6.72;;;;;;;-4.49;60.43;100071.28;4777116;30;20154;-85
2023/02/11 11:08:16;;;;;;;13.20;7.25;;;;;;;-4.50;60.96;100066.97;4761977;30;20138;-82
2023/02/11 11:11:04;;;;;;;12.77;5.97;;;;;;;-4.37;61.00;100080.75;4783329;30;20500;-84
2023/02/11 11:13:41;;;;;;;7.65;5.47;;;;;;;-4.42;60.90;100080.81;4768969;29;20104;-86
2023/02/11 11:16:11;;;;;;;13.90;7.30;;;;;;;-4.44;61.10;100077.31;4764572;29;20135;-85
2023/02/11 11:18:42;;;;;;;14.45;7.53;;;;;;;-4.26;61.19;100086.75;4763435;29;20054;-84
2023/02/11 11:21:19;;;;;;;13.50;6.95;;;;;;;-4.29;61.35;100069.38;4811878;29;20432;-85
2023/02/11 11:24:03;;;;;;;12.35;6.40;;;;;;;-4.32;61.29;100077.25;4792944;29;20495;-85
2023/02/11 11:26:42;;;;;;;21.35;6.85;;;;;;;-4.60;61.86;100063.53;4777757;29;20534;-82
2023/02/11 11:29:21;;;;;;;12.35;7.18;;;;;;;-4.51;61.69;100070.44;4792747;29;20125;-80
2023/02/11 11:31:53;;;;;;;11.77;6.93;;;;;;;-4.55;61.64;100071.31;4792253;29;20054;-81
2023/02/11 11:34:28;;;;;;;17.35;8.25;;;;;;;-4.76;62.36;100083.63;4777829;29;20145;-86
2023/02/11 11:36:56;;;;;;;12.05;6.65;;;;;;;-4.78;62.59;100087.97;4808698;29;20039;-86